Terminal Aerodrome Forecast
Issued by NWS

Home | Current Version | Previous Version | Graphics & Text | Print | Product List | Glossary On
Versions: 1 2 3 4 5 6 7 8 9 10 11 12 13 14 15 16 17
215
FTUS43 KMPX 201726
TAFAXN
TAF
KAXN 201726Z 2018/2118 18020G30KT P6SM FEW250
     FM210500 18021G29KT P6SM BKN150
     FM211200 17017KT P6SM OVC025
     FM211600 18013KT P6SM OVC015=

USA.gov is the U.S. government's official web portal to all federal, state and local government web resources and services.